Portada
METAR-TAF:

METAR-TAF

Aeroports :

Hanford, Califòrnia, Estats Units d'Amèrica

latitud: 36-19-07N, longitud: 119-37-44W, altitud: 74 m

Observació

L'informe es va fer fa 6 minuts, a les 09:24 UTC
Vent calma
Temperatura 9°C
Humitat 93%
Pressió 1021 hPa
Visibilitat: 4.0 km
Núvols disperses a una alçada de 12000 ft
boirina

METAR: KHJO 260924Z AUTO 00000KT 2 1/2SM BR SCT120 09/08 A3014 RMK AO2 T00890078

Hora: 01:30 (09:30 UTC)


TAF: manca

Observacions i pronòstics meteorològics de més de 4000 aeroports (METAR i TAF).

Les estacions disponibles són els punts grocs i vermells al mapa.

Posi el ratolí al punt desitjat per veure el nom de l'estació.

Feu clic per veure les observacions i els pronòstics meteorològics.

Per canviar el mapa: feu clic els botons verds amb una creu de color negre per apropar; al botó verd amb un guió per allunyar la imatge; o en les fletxes verdes per a mapes adjacents.


METAR-TAF: